sensor_id;sensor_type;location;lat;lon;timestamp;P1;durP1;ratioP1;P2;durP2;ratioP2
20421;SDS011;10370;53.102;18.034;2023-03-14T00:04:05;8.82;;;5.68;;
20421;SDS011;10370;53.102;18.034;2023-03-14T00:09:27;9.13;;;5.43;;
20421;SDS011;10370;53.102;18.034;2023-03-14T00:14:52;10.20;;;5.82;;
20421;SDS011;10370;53.102;18.034;2023-03-14T00:20:15;7.70;;;5.03;;
20421;SDS011;10370;53.102;18.034;2023-03-14T00:25:42;8.60;;;5.28;;
20421;SDS011;10370;53.102;18.034;2023-03-14T00:31:06;8.90;;;5.28;;
20421;SDS011;10370;53.102;18.034;2023-03-14T00:36:30;11.90;;;4.93;;
20421;SDS011;10370;53.102;18.034;2023-03-14T00:41:55;8.82;;;5.10;;
20421;SDS011;10370;53.102;18.034;2023-03-14T01:20:36;15.43;;;5.82;;
20421;SDS011;10370;53.102;18.034;2023-03-14T01:26:01;9.63;;;4.72;;
20421;SDS011;10370;53.102;18.034;2023-03-14T01:31:27;10.32;;;4.40;;
20421;SDS011;10370;53.102;18.034;2023-03-14T01:36:52;7.28;;;4.43;;
20421;SDS011;10370;53.102;18.034;2023-03-14T01:42:18;7.93;;;4.60;;
20421;SDS011;10370;53.102;18.034;2023-03-14T01:47:45;7.93;;;4.30;;
20421;SDS011;10370;53.102;18.034;2023-03-14T01:53:09;6.32;;;4.18;;
20421;SDS011;10370;53.102;18.034;2023-03-14T01:58:33;13.65;;;4.28;;
20421;SDS011;10370;53.102;18.034;2023-03-14T02:04:02;7.15;;;3.97;;
20421;SDS011;10370;53.102;18.034;2023-03-14T02:09:25;8.32;;;3.80;;
20421;SDS011;10370;53.102;18.034;2023-03-14T02:14:50;7.10;;;3.95;;
20421;SDS011;10370;53.102;18.034;2023-03-14T02:26:08;6.40;;;3.60;;
20421;SDS011;10370;53.102;18.034;2023-03-14T02:31:35;4.75;;;3.38;;
20421;SDS011;10370;53.102;18.034;2023-03-14T02:37:02;4.80;;;3.20;;
20421;SDS011;10370;53.102;18.034;2023-03-14T02:42:25;5.35;;;3.00;;
20421;SDS011;10370;53.102;18.034;2023-03-14T02:47:54;4.18;;;2.92;;
20421;SDS011;10370;53.102;18.034;2023-03-14T02:53:29;3.45;;;2.50;;
20421;SDS011;10370;53.102;18.034;2023-03-14T02:58:56;4.70;;;2.78;;
20421;SDS011;10370;53.102;18.034;2023-03-14T03:04:24;4.10;;;2.60;;
20421;SDS011;10370;53.102;18.034;2023-03-14T03:09:49;4.40;;;2.80;;
20421;SDS011;10370;53.102;18.034;2023-03-14T03:15:14;4.18;;;2.40;;
20421;SDS011;10370;53.102;18.034;2023-03-14T03:20:39;4.45;;;2.22;;
20421;SDS011;10370;53.102;18.034;2023-03-14T03:26:04;5.53;;;2.40;;
20421;SDS011;10370;53.102;18.034;2023-03-14T03:31:29;5.65;;;2.53;;
20421;SDS011;10370;53.102;18.034;2023-03-14T03:36:57;5.38;;;2.53;;
20421;SDS011;10370;53.102;18.034;2023-03-14T03:42:20;3.30;;;2.30;;
20421;SDS011;10370;53.102;18.034;2023-03-14T03:47:46;5.68;;;2.47;;
20421;SDS011;10370;53.102;18.034;2023-03-14T03:53:11;4.18;;;2.60;;
20421;SDS011;10370;53.102;18.034;2023-03-14T03:58:49;4.80;;;2.65;;
20421;SDS011;10370;53.102;18.034;2023-03-14T04:04:14;5.47;;;2.88;;
20421;SDS011;10370;53.102;18.034;2023-03-14T04:09:37;5.85;;;2.80;;
20421;SDS011;10370;53.102;18.034;2023-03-14T04:15:03;10.27;;;6.60;;
20421;SDS011;10370;53.102;18.034;2023-03-14T04:20:26;6.50;;;3.90;;
20421;SDS011;10370;53.102;18.034;2023-03-14T04:25:50;7.65;;;4.47;;
20421;SDS011;10370;53.102;18.034;2023-03-14T04:31:14;6.60;;;3.80;;
20421;SDS011;10370;53.102;18.034;2023-03-14T04:36:43;5.78;;;3.47;;
20421;SDS011;10370;53.102;18.034;2023-03-14T04:42:06;6.05;;;3.20;;
20421;SDS011;10370;53.102;18.034;2023-03-14T04:47:29;6.05;;;3.88;;
20421;SDS011;10370;53.102;18.034;2023-03-14T04:52:54;9.02;;;4.57;;
20421;SDS011;10370;53.102;18.034;2023-03-14T04:58:20;8.80;;;4.60;;
20421;SDS011;10370;53.102;18.034;2023-03-14T05:03:42;6.65;;;4.70;;
20421;SDS011;10370;53.102;18.034;2023-03-14T05:09:07;6.80;;;4.65;;
20421;SDS011;10370;53.102;18.034;2023-03-14T05:14:37;7.47;;;5.15;;
20421;SDS011;10370;53.102;18.034;2023-03-14T05:20:01;8.35;;;4.72;;
20421;SDS011;10370;53.102;18.034;2023-03-14T05:25:35;9.20;;;5.47;;
20421;SDS011;10370;53.102;18.034;2023-03-14T05:31:00;9.85;;;5.80;;
20421;SDS011;10370;53.102;18.034;2023-03-14T05:36:28;12.18;;;6.15;;
20421;SDS011;10370;53.102;18.034;2023-03-14T05:41:53;8.63;;;5.50;;
20421;SDS011;10370;53.102;18.034;2023-03-14T05:47:20;10.02;;;5.55;;
20421;SDS011;10370;53.102;18.034;2023-03-14T05:52:45;8.25;;;5.50;;
20421;SDS011;10370;53.102;18.034;2023-03-14T05:58:10;9.77;;;5.63;;
20421;SDS011;10370;53.102;18.034;2023-03-14T06:03:35;10.32;;;5.57;;
20421;SDS011;10370;53.102;18.034;2023-03-14T06:08:58;8.43;;;5.38;;
20421;SDS011;10370;53.102;18.034;2023-03-14T06:14:23;11.93;;;5.60;;
20421;SDS011;10370;53.102;18.034;2023-03-14T06:19:48;11.57;;;6.20;;
20421;SDS011;10370;53.102;18.034;2023-03-14T06:25:11;12.05;;;6.53;;
20421;SDS011;10370;53.102;18.034;2023-03-14T06:30:33;9.80;;;5.80;;
20421;SDS011;10370;53.102;18.034;2023-03-14T06:35:54;8.13;;;5.25;;
20421;SDS011;10370;53.102;18.034;2023-03-14T06:41:17;11.20;;;5.45;;
20421;SDS011;10370;53.102;18.034;2023-03-14T06:46:43;9.60;;;5.47;;
20421;SDS011;10370;53.102;18.034;2023-03-14T06:52:05;10.15;;;6.05;;
20421;SDS011;10370;53.102;18.034;2023-03-14T06:57:26;9.75;;;5.93;;
20421;SDS011;10370;53.102;18.034;2023-03-14T07:02:52;10.37;;;6.80;;
20421;SDS011;10370;53.102;18.034;2023-03-14T07:08:13;9.77;;;5.88;;
20421;SDS011;10370;53.102;18.034;2023-03-14T07:13:38;9.10;;;5.68;;
20421;SDS011;10370;53.102;18.034;2023-03-14T07:19:05;10.30;;;5.57;;
20421;SDS011;10370;53.102;18.034;2023-03-14T07:24:30;10.98;;;5.72;;
20421;SDS011;10370;53.102;18.034;2023-03-14T07:29:54;13.25;;;6.20;;
20421;SDS011;10370;53.102;18.034;2023-03-14T07:35:15;12.57;;;6.40;;
20421;SDS011;10370;53.102;18.034;2023-03-14T07:40:40;10.18;;;6.18;;
20421;SDS011;10370;53.102;18.034;2023-03-14T07:46:03;14.57;;;6.35;;
20421;SDS011;10370;53.102;18.034;2023-03-14T07:51:27;11.13;;;5.63;;
20421;SDS011;10370;53.102;18.034;2023-03-14T07:56:52;10.20;;;5.85;;
20421;SDS011;10370;53.102;18.034;2023-03-14T08:02:19;9.68;;;5.47;;
20421;SDS011;10370;53.102;18.034;2023-03-14T08:07:42;8.70;;;5.32;;
20421;SDS011;10370;53.102;18.034;2023-03-14T08:13:03;9.82;;;5.60;;
20421;SDS011;10370;53.102;18.034;2023-03-14T08:18:25;10.05;;;5.57;;
20421;SDS011;10370;53.102;18.034;2023-03-14T08:23:45;9.88;;;5.45;;
20421;SDS011;10370;53.102;18.034;2023-03-14T08:29:11;9.27;;;5.43;;
20421;SDS011;10370;53.102;18.034;2023-03-14T08:34:33;9.68;;;5.10;;
20421;SDS011;10370;53.102;18.034;2023-03-14T08:40:01;7.78;;;4.85;;
20421;SDS011;10370;53.102;18.034;2023-03-14T08:45:26;8.48;;;5.85;;
20421;SDS011;10370;53.102;18.034;2023-03-14T08:50:47;9.25;;;5.57;;
20421;SDS011;10370;53.102;18.034;2023-03-14T08:56:12;9.40;;;5.43;;
20421;SDS011;10370;53.102;18.034;2023-03-14T09:01:37;8.88;;;5.00;;
20421;SDS011;10370;53.102;18.034;2023-03-14T09:07:02;11.15;;;5.30;;
20421;SDS011;10370;53.102;18.034;2023-03-14T09:12:27;11.45;;;6.10;;
20421;SDS011;10370;53.102;18.034;2023-03-14T09:17:52;9.00;;;4.90;;
20421;SDS011;10370;53.102;18.034;2023-03-14T09:23:16;8.07;;;4.32;;
20421;SDS011;10370;53.102;18.034;2023-03-14T09:28:41;11.70;;;5.68;;
20421;SDS011;10370;53.102;18.034;2023-03-14T09:34:07;9.32;;;5.60;;
20421;SDS011;10370;53.102;18.034;2023-03-14T09:39:27;7.72;;;4.57;;
20421;SDS011;10370;53.102;18.034;2023-03-14T09:44:53;7.20;;;4.38;;
20421;SDS011;10370;53.102;18.034;2023-03-14T09:50:30;8.52;;;3.80;;
20421;SDS011;10370;53.102;18.034;2023-03-14T09:56:00;5.80;;;3.60;;
20421;SDS011;10370;53.102;18.034;2023-03-14T10:01:26;7.72;;;3.30;;
20421;SDS011;10370;53.102;18.034;2023-03-14T10:06:54;4.47;;;2.60;;
20421;SDS011;10370;53.102;18.034;2023-03-14T10:12:19;6.20;;;2.83;;
20421;SDS011;10370;53.102;18.034;2023-03-14T10:17:55;7.07;;;3.70;;
20421;SDS011;10370;53.102;18.034;2023-03-14T10:23:26;3.15;;;2.25;;
20421;SDS011;10370;53.102;18.034;2023-03-14T10:28:52;6.43;;;2.78;;
20421;SDS011;10370;53.102;18.034;2023-03-14T10:34:23;4.90;;;2.60;;
20421;SDS011;10370;53.102;18.034;2023-03-14T10:39:49;4.05;;;2.47;;
20421;SDS011;10370;53.102;18.034;2023-03-14T10:50:57;7.55;;;2.60;;
20421;SDS011;10370;53.102;18.034;2023-03-14T10:56:33;6.72;;;2.90;;
20421;SDS011;10370;53.102;18.034;2023-03-14T11:07:41;6.65;;;3.13;;
20421;SDS011;10370;53.102;18.034;2023-03-14T11:41:34;9.25;;;3.40;;
20421;SDS011;10370;53.102;18.034;2023-03-14T11:47:02;9.02;;;3.70;;
20421;SDS011;10370;53.102;18.034;2023-03-14T11:52:40;7.63;;;3.97;;
20421;SDS011;10370;53.102;18.034;2023-03-14T11:58:26;4.30;;;2.80;;
20421;SDS011;10370;53.102;18.034;2023-03-14T12:04:01;9.95;;;4.20;;
20421;SDS011;10370;53.102;18.034;2023-03-14T12:09:25;5.22;;;3.10;;
20421;SDS011;10370;53.102;18.034;2023-03-14T12:14:52;6.55;;;3.85;;
20421;SDS011;10370;53.102;18.034;2023-03-14T12:20:23;6.15;;;3.42;;
20421;SDS011;10370;53.102;18.034;2023-03-14T12:25:48;9.50;;;4.10;;
20421;SDS011;10370;53.102;18.034;2023-03-14T12:48:18;10.40;;;4.55;;
20421;SDS011;10370;53.102;18.034;2023-03-14T12:54:01;9.80;;;6.43;;
20421;SDS011;10370;53.102;18.034;2023-03-14T12:59:33;8.55;;;4.53;;
20421;SDS011;10370;53.102;18.034;2023-03-14T13:05:23;9.48;;;4.00;;
20421;SDS011;10370;53.102;18.034;2023-03-14T13:10:48;9.27;;;4.03;;
20421;SDS011;10370;53.102;18.034;2023-03-14T13:16:14;8.98;;;4.00;;
20421;SDS011;10370;53.102;18.034;2023-03-14T13:21:43;8.38;;;4.25;;
20421;SDS011;10370;53.102;18.034;2023-03-14T13:27:15;5.95;;;3.80;;
20421;SDS011;10370;53.102;18.034;2023-03-14T13:32:43;5.95;;;3.72;;
20421;SDS011;10370;53.102;18.034;2023-03-14T13:38:15;8.05;;;3.58;;
20421;SDS011;10370;53.102;18.034;2023-03-14T13:43:39;11.02;;;3.60;;
20421;SDS011;10370;53.102;18.034;2023-03-14T13:49:06;7.72;;;4.20;;
20421;SDS011;10370;53.102;18.034;2023-03-14T13:54:34;8.40;;;3.50;;
20421;SDS011;10370;53.102;18.034;2023-03-14T14:00:17;7.32;;;3.88;;
20421;SDS011;10370;53.102;18.034;2023-03-14T14:05:43;9.38;;;3.67;;
20421;SDS011;10370;53.102;18.034;2023-03-14T14:11:05;12.38;;;5.65;;
20421;SDS011;10370;53.102;18.034;2023-03-14T14:16:34;6.15;;;3.63;;
20421;SDS011;10370;53.102;18.034;2023-03-14T14:21:57;8.10;;;3.80;;
20421;SDS011;10370;53.102;18.034;2023-03-14T14:27:29;7.32;;;3.42;;
20421;SDS011;10370;53.102;18.034;2023-03-14T14:33:17;7.15;;;4.07;;
20421;SDS011;10370;53.102;18.034;2023-03-14T14:38:39;8.75;;;3.90;;
20421;SDS011;10370;53.102;18.034;2023-03-14T14:44:04;10.10;;;3.60;;
20421;SDS011;10370;53.102;18.034;2023-03-14T14:49:30;7.70;;;3.78;;
20421;SDS011;10370;53.102;18.034;2023-03-14T14:54:57;6.40;;;3.70;;
20421;SDS011;10370;53.102;18.034;2023-03-14T15:00:26;6.10;;;3.58;;
20421;SDS011;10370;53.102;18.034;2023-03-14T15:05:48;7.70;;;3.00;;
20421;SDS011;10370;53.102;18.034;2023-03-14T15:11:19;3.30;;;2.03;;
20421;SDS011;10370;53.102;18.034;2023-03-14T15:16:43;5.45;;;2.53;;
20421;SDS011;10370;53.102;18.034;2023-03-14T15:22:07;4.22;;;1.73;;
20421;SDS011;10370;53.102;18.034;2023-03-14T15:27:35;4.53;;;1.98;;
20421;SDS011;10370;53.102;18.034;2023-03-14T15:33:04;3.72;;;1.90;;
20421;SDS011;10370;53.102;18.034;2023-03-14T15:38:29;4.10;;;1.90;;
20421;SDS011;10370;53.102;18.034;2023-03-14T15:43:54;4.75;;;2.25;;
20421;SDS011;10370;53.102;18.034;2023-03-14T15:49:16;5.32;;;3.10;;
20421;SDS011;10370;53.102;18.034;2023-03-14T15:54:38;6.25;;;3.65;;
20421;SDS011;10370;53.102;18.034;2023-03-14T16:00:03;6.40;;;2.58;;
20421;SDS011;10370;53.102;18.034;2023-03-14T16:05:27;6.07;;;2.80;;
20421;SDS011;10370;53.102;18.034;2023-03-14T16:10:48;7.90;;;3.70;;
20421;SDS011;10370;53.102;18.034;2023-03-14T16:16:14;6.47;;;2.78;;
20421;SDS011;10370;53.102;18.034;2023-03-14T16:21:39;8.57;;;3.00;;
20421;SDS011;10370;53.102;18.034;2023-03-14T16:27:04;8.60;;;3.30;;
20421;SDS011;10370;53.102;18.034;2023-03-14T16:32:30;7.32;;;3.40;;
20421;SDS011;10370;53.102;18.034;2023-03-14T16:37:58;7.22;;;3.45;;
20421;SDS011;10370;53.102;18.034;2023-03-14T16:43:22;10.10;;;3.72;;
20421;SDS011;10370;53.102;18.034;2023-03-14T16:48:50;31.05;;;14.23;;
20421;SDS011;10370;53.102;18.034;2023-03-14T16:54:15;21.13;;;14.05;;
20421;SDS011;10370;53.102;18.034;2023-03-14T16:59:43;6.70;;;2.95;;
20421;SDS011;10370;53.102;18.034;2023-03-14T17:05:11;6.32;;;3.03;;
20421;SDS011;10370;53.102;18.034;2023-03-14T17:10:40;3.90;;;2.58;;
20421;SDS011;10370;53.102;18.034;2023-03-14T17:16:06;7.57;;;3.38;;
20421;SDS011;10370;53.102;18.034;2023-03-14T17:21:27;4.18;;;2.42;;
20421;SDS011;10370;53.102;18.034;2023-03-14T17:26:50;6.18;;;3.05;;
20421;SDS011;10370;53.102;18.034;2023-03-14T17:32:13;6.00;;;3.17;;
20421;SDS011;10370;53.102;18.034;2023-03-14T17:37:38;11.27;;;4.80;;
20421;SDS011;10370;53.102;18.034;2023-03-14T17:43:04;7.13;;;3.40;;
20421;SDS011;10370;53.102;18.034;2023-03-14T17:48:29;9.15;;;4.47;;
20421;SDS011;10370;53.102;18.034;2023-03-14T17:53:54;6.10;;;3.45;;
20421;SDS011;10370;53.102;18.034;2023-03-14T17:59:19;5.65;;;3.40;;
20421;SDS011;10370;53.102;18.034;2023-03-14T18:04:40;5.88;;;3.42;;
20421;SDS011;10370;53.102;18.034;2023-03-14T18:10:05;8.68;;;4.32;;
20421;SDS011;10370;53.102;18.034;2023-03-14T18:15:31;5.68;;;3.72;;
20421;SDS011;10370;53.102;18.034;2023-03-14T18:20:54;6.57;;;3.90;;
20421;SDS011;10370;53.102;18.034;2023-03-14T18:26:19;7.45;;;4.75;;
20421;SDS011;10370;53.102;18.034;2023-03-14T18:31:48;8.20;;;4.35;;
20421;SDS011;10370;53.102;18.034;2023-03-14T18:37:14;9.15;;;5.25;;
20421;SDS011;10370;53.102;18.034;2023-03-14T18:42:36;9.52;;;5.30;;
20421;SDS011;10370;53.102;18.034;2023-03-14T18:48:02;11.95;;;5.00;;
20421;SDS011;10370;53.102;18.034;2023-03-14T18:53:28;12.90;;;6.72;;
20421;SDS011;10370;53.102;18.034;2023-03-14T18:58:52;15.70;;;7.90;;
20421;SDS011;10370;53.102;18.034;2023-03-14T19:04:15;11.60;;;7.32;;
20421;SDS011;10370;53.102;18.034;2023-03-14T19:09:40;14.93;;;7.57;;
20421;SDS011;10370;53.102;18.034;2023-03-14T19:15:05;12.27;;;6.53;;
20421;SDS011;10370;53.102;18.034;2023-03-14T19:20:28;13.27;;;6.88;;
20421;SDS011;10370;53.102;18.034;2023-03-14T19:25:56;17.83;;;8.27;;
20421;SDS011;10370;53.102;18.034;2023-03-14T19:31:19;14.52;;;8.50;;
20421;SDS011;10370;53.102;18.034;2023-03-14T19:36:44;16.13;;;9.05;;
20421;SDS011;10370;53.102;18.034;2023-03-14T19:42:08;15.05;;;8.13;;
20421;SDS011;10370;53.102;18.034;2023-03-14T19:47:34;16.33;;;8.00;;
20421;SDS011;10370;53.102;18.034;2023-03-14T19:52:55;11.45;;;6.80;;
20421;SDS011;10370;53.102;18.034;2023-03-14T19:58:21;11.57;;;5.80;;
20421;SDS011;10370;53.102;18.034;2023-03-14T20:03:42;13.30;;;6.32;;
20421;SDS011;10370;53.102;18.034;2023-03-14T20:09:04;12.50;;;5.95;;
20421;SDS011;10370;53.102;18.034;2023-03-14T20:14:53;6.70;;;3.00;;
20421;SDS011;10370;53.102;18.034;2023-03-14T20:20:41;2.15;;;1.58;;
20421;SDS011;10370;53.102;18.034;2023-03-14T20:26:03;4.93;;;1.85;;
20421;SDS011;10370;53.102;18.034;2023-03-14T20:31:29;3.13;;;1.50;;
20421;SDS011;10370;53.102;18.034;2023-03-14T20:36:57;2.37;;;1.47;;
20421;SDS011;10370;53.102;18.034;2023-03-14T20:42:32;2.17;;;1.57;;
20421;SDS011;10370;53.102;18.034;2023-03-14T20:47:53;7.23;;;1.40;;
20421;SDS011;10370;53.102;18.034;2023-03-14T20:53:15;4.23;;;1.60;;
20421;SDS011;10370;53.102;18.034;2023-03-14T20:58:48;2.90;;;1.10;;
20421;SDS011;10370;53.102;18.034;2023-03-14T21:04:17;2.00;;;1.30;;
20421;SDS011;10370;53.102;18.034;2023-03-14T21:09:43;2.83;;;1.37;;
20421;SDS011;10370;53.102;18.034;2023-03-14T21:15:05;4.63;;;1.70;;
20421;SDS011;10370;53.102;18.034;2023-03-14T21:20:41;2.00;;;1.60;;
20421;SDS011;10370;53.102;18.034;2023-03-14T21:26:40;3.37;;;1.80;;
20421;SDS011;10370;53.102;18.034;2023-03-14T21:32:36;2.83;;;1.93;;
20421;SDS011;10370;53.102;18.034;2023-03-14T21:37:57;3.93;;;1.80;;
20421;SDS011;10370;53.102;18.034;2023-03-14T21:43:21;2.40;;;1.90;;
20421;SDS011;10370;53.102;18.034;2023-03-14T21:48:45;2.30;;;1.90;;
20421;SDS011;10370;53.102;18.034;2023-03-14T21:54:08;3.43;;;2.13;;
20421;SDS011;10370;53.102;18.034;2023-03-14T21:59:38;3.10;;;2.50;;
20421;SDS011;10370;53.102;18.034;2023-03-14T22:05:04;5.53;;;2.60;;
20421;SDS011;10370;53.102;18.034;2023-03-14T22:10:34;5.27;;;2.50;;
20421;SDS011;10370;53.102;18.034;2023-03-14T22:16:04;4.17;;;2.67;;
20421;SDS011;10370;53.102;18.034;2023-03-14T22:21:34;3.37;;;2.20;;
20421;SDS011;10370;53.102;18.034;2023-03-14T22:26:59;4.87;;;2.07;;
20421;SDS011;10370;53.102;18.034;2023-03-14T22:32:23;5.47;;;2.00;;
20421;SDS011;10370;53.102;18.034;2023-03-14T22:37:48;2.77;;;1.73;;
20421;SDS011;10370;53.102;18.034;2023-03-14T22:43:13;4.43;;;1.73;;
20421;SDS011;10370;53.102;18.034;2023-03-14T22:48:38;5.53;;;1.87;;
20421;SDS011;10370;53.102;18.034;2023-03-14T22:54:04;6.23;;;1.97;;
20421;SDS011;10370;53.102;18.034;2023-03-14T22:59:29;4.70;;;2.27;;
20421;SDS011;10370;53.102;18.034;2023-03-14T23:05:00;8.27;;;4.10;;
20421;SDS011;10370;53.102;18.034;2023-03-14T23:10:25;6.40;;;3.50;;
20421;SDS011;10370;53.102;18.034;2023-03-14T23:15:52;6.87;;;2.83;;
20421;SDS011;10370;53.102;18.034;2023-03-14T23:21:18;5.20;;;3.00;;
20421;SDS011;10370;53.102;18.034;2023-03-14T23:26:44;5.67;;;2.50;;
20421;SDS011;10370;53.102;18.034;2023-03-14T23:32:12;5.90;;;2.60;;
20421;SDS011;10370;53.102;18.034;2023-03-14T23:37:37;4.83;;;3.00;;
20421;SDS011;10370;53.102;18.034;2023-03-14T23:43:02;8.93;;;3.10;;
20421;SDS011;10370;53.102;18.034;2023-03-14T23:48:28;7.03;;;3.20;;
20421;SDS011;10370;53.102;18.034;2023-03-14T23:53:55;9.40;;;3.97;;
20421;SDS011;10370;53.102;18.034;2023-03-14T23:59:18;7.77;;;4.47;;
